sensor_id;sensor_type;location;lat;lon;timestamp;pressure;altitude;pressure_sealevel;temperature;humidity
49044;BME280;34860;48.066;14.124;2024-02-28T00:01:49;96368.06;;;4.19;74.38
49044;BME280;34860;48.066;14.124;2024-02-28T00:04:40;96368.09;;;4.15;74.39
49044;BME280;34860;48.066;14.124;2024-02-28T00:07:31;96376.75;;;4.14;74.57
49044;BME280;34860;48.066;14.124;2024-02-28T00:10:20;96372.44;;;4.13;74.54
49044;BME280;34860;48.066;14.124;2024-02-28T00:13:11;96375.59;;;4.11;74.46
49044;BME280;34860;48.066;14.124;2024-02-28T00:16:00;96381.47;;;4.10;74.39
49044;BME280;34860;48.066;14.124;2024-02-28T00:18:49;96388.19;;;4.09;74.41
49044;BME280;34860;48.066;14.124;2024-02-28T00:21:38;96390.50;;;4.14;74.11
49044;BME280;34860;48.066;14.124;2024-02-28T00:24:29;96392.06;;;4.18;74.16
49044;BME280;34860;48.066;14.124;2024-02-28T00:27:18;96398.31;;;4.23;74.03
49044;BME280;34860;48.066;14.124;2024-02-28T00:30:09;96396.31;;;4.27;74.11
49044;BME280;34860;48.066;14.124;2024-02-28T00:32:59;96397.50;;;4.29;74.05
49044;BME280;34860;48.066;14.124;2024-02-28T00:35:48;96394.72;;;4.33;74.01
49044;BME280;34860;48.066;14.124;2024-02-28T00:38:37;96395.47;;;4.37;73.90
49044;BME280;34860;48.066;14.124;2024-02-28T00:41:26;96401.34;;;4.43;73.85
49044;BME280;34860;48.066;14.124;2024-02-28T00:44:15;96405.28;;;4.45;73.82
49044;BME280;34860;48.066;14.124;2024-02-28T00:47:07;96389.94;;;4.44;73.82
49044;BME280;34860;48.066;14.124;2024-02-28T00:49:56;96400.94;;;4.44;73.93
49044;BME280;34860;48.066;14.124;2024-02-28T00:52:45;96403.28;;;4.46;73.85
49044;BME280;34860;48.066;14.124;2024-02-28T00:55:34;96413.91;;;4.47;74.04
49044;BME280;34860;48.066;14.124;2024-02-28T00:58:23;96407.97;;;4.52;74.11
49044;BME280;34860;48.066;14.124;2024-02-28T01:01:13;96414.25;;;4.53;74.13
49044;BME280;34860;48.066;14.124;2024-02-28T01:04:04;96417.78;;;4.53;74.17
49044;BME280;34860;48.066;14.124;2024-02-28T01:06:53;96415.00;;;4.57;74.13
49044;BME280;34860;48.066;14.124;2024-02-28T01:09:42;96431.88;;;4.63;74.00
49044;BME280;34860;48.066;14.124;2024-02-28T01:12:32;96435.41;;;4.63;74.09
49044;BME280;34860;48.066;14.124;2024-02-28T01:15:22;96434.66;;;4.63;74.15
49044;BME280;34860;48.066;14.124;2024-02-28T01:18:11;96441.69;;;4.64;74.16
49044;BME280;34860;48.066;14.124;2024-02-28T01:21:02;96432.66;;;4.63;74.21
49044;BME280;34860;48.066;14.124;2024-02-28T01:23:51;96437.78;;;4.61;74.31
49044;BME280;34860;48.066;14.124;2024-02-28T01:26:40;96440.56;;;4.61;74.38
49044;BME280;34860;48.066;14.124;2024-02-28T01:29:30;96449.22;;;4.60;74.29
49044;BME280;34860;48.066;14.124;2024-02-28T01:32:19;96441.34;;;4.58;74.24
49044;BME280;34860;48.066;14.124;2024-02-28T01:35:09;96446.84;;;4.58;74.36
49044;BME280;34860;48.066;14.124;2024-02-28T01:37:59;96442.13;;;4.59;74.41
49044;BME280;34860;48.066;14.124;2024-02-28T01:40:52;96449.22;;;4.56;74.45
49044;BME280;34860;48.066;14.124;2024-02-28T01:43:41;96447.66;;;4.55;74.34
49044;BME280;34860;48.066;14.124;2024-02-28T01:46:31;96438.22;;;4.52;74.08
49044;BME280;34860;48.066;14.124;2024-02-28T01:49:20;96455.97;;;4.44;74.21
49044;BME280;34860;48.066;14.124;2024-02-28T01:52:10;96451.66;;;4.40;74.45
49044;BME280;34860;48.066;14.124;2024-02-28T01:55:01;96451.28;;;4.34;74.47
49044;BME280;34860;48.066;14.124;2024-02-28T01:57:51;96448.16;;;4.32;74.54
49044;BME280;34860;48.066;14.124;2024-02-28T02:00:41;96443.50;;;4.25;74.62
49044;BME280;34860;48.066;14.124;2024-02-28T02:03:31;96456.50;;;4.17;74.63
49044;BME280;34860;48.066;14.124;2024-02-28T02:06:22;96479.28;;;4.14;74.82
49044;BME280;34860;48.066;14.124;2024-02-28T02:09:11;96476.53;;;4.14;74.73
49044;BME280;34860;48.066;14.124;2024-02-28T02:12:02;96482.03;;;4.14;74.83
49044;BME280;34860;48.066;14.124;2024-02-28T02:14:51;96487.53;;;4.18;74.62
49044;BME280;34860;48.066;14.124;2024-02-28T02:17:41;96487.53;;;4.22;74.65
49044;BME280;34860;48.066;14.124;2024-02-28T02:20:32;96482.41;;;4.24;74.64
49044;BME280;34860;48.066;14.124;2024-02-28T02:23:23;96474.56;;;4.18;74.56
49044;BME280;34860;48.066;14.124;2024-02-28T02:26:12;96471.84;;;4.15;74.54
49044;BME280;34860;48.066;14.124;2024-02-28T02:29:01;96475.75;;;4.14;74.54
49044;BME280;34860;48.066;14.124;2024-02-28T02:31:50;96484.44;;;4.09;74.59
49044;BME280;34860;48.066;14.124;2024-02-28T02:34:39;96484.84;;;4.07;74.71
49044;BME280;34860;48.066;14.124;2024-02-28T02:37:28;96490.34;;;4.07;74.60
49044;BME280;34860;48.066;14.124;2024-02-28T02:40:19;96495.44;;;4.05;74.51
49044;BME280;34860;48.066;14.124;2024-02-28T02:43:08;96491.13;;;4.04;74.59
49044;BME280;34860;48.066;14.124;2024-02-28T02:45:57;96494.28;;;4.03;74.51
49044;BME280;34860;48.066;14.124;2024-02-28T02:48:46;96502.13;;;3.97;74.65
49044;BME280;34860;48.066;14.124;2024-02-28T02:51:35;96508.47;;;3.87;74.63
49044;BME280;34860;48.066;14.124;2024-02-28T02:54:24;96505.31;;;3.85;74.79
49044;BME280;34860;48.066;14.124;2024-02-28T02:57:15;96502.19;;;3.79;74.80
49044;BME280;34860;48.066;14.124;2024-02-28T03:00:08;96523.41;;;3.78;74.64
49044;BME280;34860;48.066;14.124;2024-02-28T03:02:57;96520.22;;;3.87;74.40
49044;BME280;34860;48.066;14.124;2024-02-28T03:05:47;96513.16;;;3.90;74.21
49044;BME280;34860;48.066;14.124;2024-02-28T03:08:36;96517.47;;;3.94;74.27
49044;BME280;34860;48.066;14.124;2024-02-28T03:11:25;96511.16;;;4.05;74.11
49044;BME280;34860;48.066;14.124;2024-02-28T03:14:16;96506.44;;;4.09;73.97
49044;BME280;34860;48.066;14.124;2024-02-28T03:17:06;96509.56;;;4.04;73.85
49044;BME280;34860;48.066;14.124;2024-02-28T03:19:55;96506.47;;;3.98;74.20
49044;BME280;34860;48.066;14.124;2024-02-28T03:22:44;96512.72;;;3.98;74.30
49044;BME280;34860;48.066;14.124;2024-02-28T03:25:33;96514.31;;;3.99;74.14
49044;BME280;34860;48.066;14.124;2024-02-28T03:28:22;96522.56;;;3.96;74.34
49044;BME280;34860;48.066;14.124;2024-02-28T03:31:13;96515.50;;;3.95;74.40
49044;BME280;34860;48.066;14.124;2024-02-28T03:34:02;96509.59;;;3.89;74.38
49044;BME280;34860;48.066;14.124;2024-02-28T03:36:51;96513.56;;;3.85;74.75
49044;BME280;34860;48.066;14.124;2024-02-28T03:39:41;96520.22;;;3.87;74.58
49044;BME280;34860;48.066;14.124;2024-02-28T03:42:30;96545.75;;;3.88;74.65
49044;BME280;34860;48.066;14.124;2024-02-28T03:45:19;96551.63;;;3.93;74.59
49044;BME280;34860;48.066;14.124;2024-02-28T03:48:10;96544.53;;;4.03;74.67
49044;BME280;34860;48.066;14.124;2024-02-28T03:50:59;96553.97;;;4.09;74.58
49044;BME280;34860;48.066;14.124;2024-02-28T03:53:48;96562.59;;;4.18;74.41
49044;BME280;34860;48.066;14.124;2024-02-28T03:56:37;96557.84;;;4.26;74.37
49044;BME280;34860;48.066;14.124;2024-02-28T03:59:26;96564.50;;;4.36;74.26
49044;BME280;34860;48.066;14.124;2024-02-28T04:02:15;96556.19;;;4.43;73.96
49044;BME280;34860;48.066;14.124;2024-02-28T04:05:07;96544.78;;;4.52;74.13
49044;BME280;34860;48.066;14.124;2024-02-28T04:07:56;96555.00;;;4.55;74.01
49044;BME280;34860;48.066;14.124;2024-02-28T04:10:47;96561.66;;;4.58;73.95
49044;BME280;34860;48.066;14.124;2024-02-28T04:13:37;96557.72;;;4.59;74.07
49044;BME280;34860;48.066;14.124;2024-02-28T04:16:26;96562.44;;;4.62;74.16
49044;BME280;34860;48.066;14.124;2024-02-28T04:19:15;96565.94;;;4.66;73.84
49044;BME280;34860;48.066;14.124;2024-02-28T04:22:06;96570.25;;;4.70;74.21
49044;BME280;34860;48.066;14.124;2024-02-28T04:24:55;96569.84;;;4.76;74.20
49044;BME280;34860;48.066;14.124;2024-02-28T04:27:44;96577.31;;;4.79;74.26
49044;BME280;34860;48.066;14.124;2024-02-28T04:30:34;96581.59;;;4.80;74.27
49044;BME280;34860;48.066;14.124;2024-02-28T04:33:23;96573.31;;;4.83;74.33
49044;BME280;34860;48.066;14.124;2024-02-28T04:36:12;96580.78;;;4.90;74.09
49044;BME280;34860;48.066;14.124;2024-02-28T04:39:04;96574.84;;;4.95;74.01
49044;BME280;34860;48.066;14.124;2024-02-28T04:41:55;96583.84;;;4.99;73.96
49044;BME280;34860;48.066;14.124;2024-02-28T04:44:44;96587.78;;;5.02;73.82
49044;BME280;34860;48.066;14.124;2024-02-28T04:47:34;96588.97;;;5.04;73.73
49044;BME280;34860;48.066;14.124;2024-02-28T04:50:25;96592.91;;;5.03;73.88
49044;BME280;34860;48.066;14.124;2024-02-28T04:53:14;96587.41;;;5.00;73.70
49044;BME280;34860;48.066;14.124;2024-02-28T04:56:05;96585.81;;;5.02;73.87
49044;BME280;34860;48.066;14.124;2024-02-28T04:58:55;96589.38;;;4.99;73.79
49044;BME280;34860;48.066;14.124;2024-02-28T05:01:44;96587.41;;;5.00;73.97
49044;BME280;34860;48.066;14.124;2024-02-28T05:04:33;96601.16;;;5.03;73.76
49044;BME280;34860;48.066;14.124;2024-02-28T05:07:22;96602.38;;;4.99;74.01
49044;BME280;34860;48.066;14.124;2024-02-28T05:10:11;96606.69;;;5.00;74.17
49044;BME280;34860;48.066;14.124;2024-02-28T05:13:02;96612.56;;;5.05;74.16
49044;BME280;34860;48.066;14.124;2024-02-28T05:15:51;96618.06;;;5.05;73.95
49044;BME280;34860;48.066;14.124;2024-02-28T05:18:40;96613.00;;;4.97;74.17
49044;BME280;34860;48.066;14.124;2024-02-28T05:21:29;96622.88;;;4.90;74.27
49044;BME280;34860;48.066;14.124;2024-02-28T05:24:19;96623.25;;;4.93;74.41
49044;BME280;34860;48.066;14.124;2024-02-28T05:27:08;96626.38;;;4.98;74.20
49044;BME280;34860;48.066;14.124;2024-02-28T05:29:59;96622.81;;;4.98;74.20
49044;BME280;34860;48.066;14.124;2024-02-28T05:32:48;96629.91;;;4.99;74.35
49044;BME280;34860;48.066;14.124;2024-02-28T05:35:37;96638.19;;;4.95;74.50
49044;BME280;34860;48.066;14.124;2024-02-28T05:38:26;96639.75;;;5.00;74.52
49044;BME280;34860;48.066;14.124;2024-02-28T05:41:16;96636.19;;;5.03;74.29
49044;BME280;34860;48.066;14.124;2024-02-28T05:44:06;96641.69;;;5.06;74.08
49044;BME280;34860;48.066;14.124;2024-02-28T05:46:57;96647.16;;;5.10;74.10
49044;BME280;34860;48.066;14.124;2024-02-28T05:49:46;96651.88;;;5.13;74.05
49044;BME280;34860;48.066;14.124;2024-02-28T05:52:35;96659.72;;;5.15;74.12
49044;BME280;34860;48.066;14.124;2024-02-28T05:55:24;96664.81;;;5.23;74.03
49044;BME280;34860;48.066;14.124;2024-02-28T05:58:13;96658.47;;;5.30;73.64
49044;BME280;34860;48.066;14.124;2024-02-28T06:01:03;96661.59;;;5.32;73.55
49044;BME280;34860;48.066;14.124;2024-02-28T06:03:54;96668.66;;;5.40;73.48
49044;BME280;34860;48.066;14.124;2024-02-28T06:06:43;96673.34;;;5.43;73.29
49044;BME280;34860;48.066;14.124;2024-02-28T06:09:32;96664.69;;;5.45;73.24
49044;BME280;34860;48.066;14.124;2024-02-28T06:12:21;96674.88;;;5.52;73.26
49044;BME280;34860;48.066;14.124;2024-02-28T06:15:11;96678.78;;;5.58;72.84
49044;BME280;34860;48.066;14.124;2024-02-28T06:18:01;96683.47;;;5.64;73.00
49044;BME280;34860;48.066;14.124;2024-02-28T06:20:51;96688.97;;;5.68;72.95
49044;BME280;34860;48.066;14.124;2024-02-28T06:23:41;96688.16;;;5.68;73.15
49044;BME280;34860;48.066;14.124;2024-02-28T06:26:30;96688.56;;;5.70;73.09
49044;BME280;34860;48.066;14.124;2024-02-28T06:29:19;96689.31;;;5.74;73.10
49044;BME280;34860;48.066;14.124;2024-02-28T06:32:09;96690.81;;;5.82;73.10
49044;BME280;34860;48.066;14.124;2024-02-28T06:34:59;96701.44;;;5.83;73.15
49044;BME280;34860;48.066;14.124;2024-02-28T06:37:49;96694.09;;;5.62;73.65
49044;BME280;34860;48.066;14.124;2024-02-28T06:40:39;96712.75;;;5.40;74.05
49044;BME280;34860;48.066;14.124;2024-02-28T06:43:29;96710.09;;;5.15;74.65
49044;BME280;34860;48.066;14.124;2024-02-28T06:46:18;96721.59;;;4.96;74.97
49044;BME280;34860;48.066;14.124;2024-02-28T06:49:07;96720.06;;;4.84;75.27
49044;BME280;34860;48.066;14.124;2024-02-28T06:51:57;96729.09;;;4.81;74.89
49044;BME280;34860;48.066;14.124;2024-02-28T06:54:50;96729.91;;;4.74;75.03
49044;BME280;34860;48.066;14.124;2024-02-28T06:57:40;96733.06;;;4.72;75.09
49044;BME280;34860;48.066;14.124;2024-02-28T07:00:29;96727.97;;;4.71;74.90
49044;BME280;34860;48.066;14.124;2024-02-28T07:03:19;96738.56;;;4.65;74.95
49044;BME280;34860;48.066;14.124;2024-02-28T07:06:08;96731.50;;;4.64;74.87
49044;BME280;34860;48.066;14.124;2024-02-28T07:08:57;96741.72;;;4.64;74.83
49044;BME280;34860;48.066;14.124;2024-02-28T07:11:49;96744.06;;;4.65;74.66
49044;BME280;34860;48.066;14.124;2024-02-28T07:14:38;96738.56;;;4.65;74.66
49044;BME280;34860;48.066;14.124;2024-02-28T07:17:28;96763.34;;;4.62;74.58
49044;BME280;34860;48.066;14.124;2024-02-28T07:20:17;96760.59;;;4.69;74.51
49044;BME280;34860;48.066;14.124;2024-02-28T07:23:06;96762.94;;;4.70;74.40
49044;BME280;34860;48.066;14.124;2024-02-28T07:25:55;96768.47;;;4.74;74.39
49044;BME280;34860;48.066;14.124;2024-02-28T07:28:47;96769.22;;;4.82;74.05
49044;BME280;34860;48.066;14.124;2024-02-28T07:31:37;96771.16;;;4.85;74.20
49044;BME280;34860;48.066;14.124;2024-02-28T07:34:26;96785.72;;;4.93;73.96
49044;BME280;34860;48.066;14.124;2024-02-28T07:37:15;96783.72;;;5.04;73.67
49044;BME280;34860;48.066;14.124;2024-02-28T07:40:05;96785.31;;;5.01;73.65
49044;BME280;34860;48.066;14.124;2024-02-28T07:42:55;96792.41;;;4.99;73.70
49044;BME280;34860;48.066;14.124;2024-02-28T07:45:45;96790.81;;;4.98;73.89
49044;BME280;34860;48.066;14.124;2024-02-28T07:48:35;96801.44;;;4.99;73.82
49044;BME280;34860;48.066;14.124;2024-02-28T07:51:24;96803.81;;;4.97;73.95
49044;BME280;34860;48.066;14.124;2024-02-28T07:54:13;96798.31;;;4.97;74.27
49044;BME280;34860;48.066;14.124;2024-02-28T07:57:02;96805.34;;;5.05;73.88
49044;BME280;34860;48.066;14.124;2024-02-28T07:59:51;96808.47;;;5.18;73.78
49044;BME280;34860;48.066;14.124;2024-02-28T08:02:42;96802.16;;;5.32;73.34
49044;BME280;34860;48.066;14.124;2024-02-28T08:05:31;96816.69;;;5.40;73.30
49044;BME280;34860;48.066;14.124;2024-02-28T08:08:26;96817.84;;;5.42;73.21
49044;BME280;34860;48.066;14.124;2024-02-28T08:11:17;96815.09;;;5.46;73.75
49044;BME280;34860;48.066;14.124;2024-02-28T08:14:06;96818.63;;;5.50;73.15
49044;BME280;34860;48.066;14.124;2024-02-28T08:16:56;96817.41;;;5.58;73.32
49044;BME280;34860;48.066;14.124;2024-02-28T08:19:47;96817.75;;;5.68;72.88
49044;BME280;34860;48.066;14.124;2024-02-28T08:22:36;96820.09;;;5.76;73.03
49044;BME280;34860;48.066;14.124;2024-02-28T08:25:25;96815.34;;;5.84;72.92
49044;BME280;34860;48.066;14.124;2024-02-28T08:28:14;96823.56;;;5.91;72.87
49044;BME280;34860;48.066;14.124;2024-02-28T08:31:03;96832.22;;;5.90;73.11
49044;BME280;34860;48.066;14.124;2024-02-28T08:33:52;96822.38;;;5.92;73.06
49044;BME280;34860;48.066;14.124;2024-02-28T08:36:44;96820.00;;;5.94;73.08
49044;BME280;34860;48.066;14.124;2024-02-28T08:39:33;96817.63;;;6.04;73.11
49044;BME280;34860;48.066;14.124;2024-02-28T08:42:23;96818.72;;;6.13;72.87
49044;BME280;34860;48.066;14.124;2024-02-28T08:45:12;96826.22;;;6.16;72.88
49044;BME280;34860;48.066;14.124;2024-02-28T08:48:01;96822.28;;;6.17;72.98
49044;BME280;34860;48.066;14.124;2024-02-28T08:50:51;96824.19;;;6.21;73.02
49044;BME280;34860;48.066;14.124;2024-02-28T08:53:41;96835.66;;;6.19;73.10
49044;BME280;34860;48.066;14.124;2024-02-28T08:56:30;96834.06;;;6.22;73.27
49044;BME280;34860;48.066;14.124;2024-02-28T08:59:20;96840.28;;;6.33;72.98
49044;BME280;34860;48.066;14.124;2024-02-28T09:02:09;96841.81;;;6.41;72.69
49044;BME280;34860;48.066;14.124;2024-02-28T09:04:59;96843.38;;;6.42;72.70
49044;BME280;34860;48.066;14.124;2024-02-28T09:07:48;96852.50;;;6.35;72.90
49044;BME280;34860;48.066;14.124;2024-02-28T09:10:40;96848.94;;;6.39;73.10
49044;BME280;34860;48.066;14.124;2024-02-28T09:13:30;96856.34;;;6.49;72.93
49044;BME280;34860;48.066;14.124;2024-02-28T09:16:21;96849.97;;;6.59;72.66
49044;BME280;34860;48.066;14.124;2024-02-28T09:19:10;96857.00;;;6.67;72.51
49044;BME280;34860;48.066;14.124;2024-02-28T09:21:59;96857.00;;;6.67;72.53
49044;BME280;34860;48.066;14.124;2024-02-28T09:24:49;96866.06;;;6.68;72.66
49044;BME280;34860;48.066;14.124;2024-02-28T09:27:40;96855.00;;;6.71;72.69
49044;BME280;34860;48.066;14.124;2024-02-28T09:30:29;96869.13;;;6.81;72.75
49044;BME280;34860;48.066;14.124;2024-02-28T09:33:22;96866.69;;;6.90;72.33
49044;BME280;34860;48.066;14.124;2024-02-28T09:36:11;96868.97;;;6.99;72.53
49044;BME280;34860;48.066;14.124;2024-02-28T09:39:00;96871.31;;;7.00;72.41
49044;BME280;34860;48.066;14.124;2024-02-28T09:41:50;96885.16;;;7.00;72.45
49044;BME280;34860;48.066;14.124;2024-02-28T09:44:42;96877.66;;;6.97;72.42
49044;BME280;34860;48.066;14.124;2024-02-28T09:47:32;96880.41;;;7.01;72.52
49044;BME280;34860;48.066;14.124;2024-02-28T09:50:25;96883.50;;;7.06;72.60
49044;BME280;34860;48.066;14.124;2024-02-28T09:53:15;96893.75;;;7.09;72.67
49044;BME280;34860;48.066;14.124;2024-02-28T09:56:06;96889.41;;;7.12;72.38
49044;BME280;34860;48.066;14.124;2024-02-28T09:58:55;96891.25;;;7.26;72.25
49044;BME280;34860;48.066;14.124;2024-02-28T10:01:50;96884.88;;;7.33;72.36
49044;BME280;34860;48.066;14.124;2024-02-28T10:04:42;96892.25;;;7.43;72.22
49044;BME280;34860;48.066;14.124;2024-02-28T10:07:31;96896.09;;;7.56;71.97
49044;BME280;34860;48.066;14.124;2024-02-28T10:10:21;96892.38;;;7.70;71.75
49044;BME280;34860;48.066;14.124;2024-02-28T10:13:11;96892.31;;;7.77;71.44
49044;BME280;34860;48.066;14.124;2024-02-28T10:16:01;96896.91;;;7.88;71.59
49044;BME280;34860;48.066;14.124;2024-02-28T10:18:52;96901.56;;;7.98;71.55
49044;BME280;34860;48.066;14.124;2024-02-28T10:21:42;96904.56;;;8.11;71.42
49044;BME280;34860;48.066;14.124;2024-02-28T10:24:32;96907.84;;;8.29;71.21
49044;BME280;34860;48.066;14.124;2024-02-28T10:27:23;96906.53;;;8.41;71.12
49044;BME280;34860;48.066;14.124;2024-02-28T10:30:12;96912.72;;;8.52;70.93
49044;BME280;34860;48.066;14.124;2024-02-28T10:33:03;96901.19;;;8.58;70.88
49044;BME280;34860;48.066;14.124;2024-02-28T10:35:55;96903.53;;;8.59;71.05
49044;BME280;34860;48.066;14.124;2024-02-28T10:38:44;96900.59;;;8.70;70.89
49044;BME280;34860;48.066;14.124;2024-02-28T10:41:34;96903.53;;;8.86;70.83
49044;BME280;34860;48.066;14.124;2024-02-28T10:44:23;96895.75;;;9.01;70.39
49044;BME280;34860;48.066;14.124;2024-02-28T10:47:14;96895.41;;;8.99;70.62
49044;BME280;34860;48.066;14.124;2024-02-28T10:50:05;96893.63;;;9.13;70.66
49044;BME280;34860;48.066;14.124;2024-02-28T10:53:00;96897.09;;;9.17;70.45
49044;BME280;34860;48.066;14.124;2024-02-28T10:55:51;96894.50;;;9.06;70.76
49044;BME280;34860;48.066;14.124;2024-02-28T10:58:50;96889.69;;;9.10;70.84
49044;BME280;34860;48.066;14.124;2024-02-28T11:01:41;96887.25;;;9.12;71.26
49044;BME280;34860;48.066;14.124;2024-02-28T11:04:32;96891.97;;;9.15;70.97
49044;BME280;34860;48.066;14.124;2024-02-28T11:07:21;96898.91;;;9.03;71.21
49044;BME280;34860;48.066;14.124;2024-02-28T11:10:12;96897.50;;;8.91;71.35
49044;BME280;34860;48.066;14.124;2024-02-28T11:13:01;96895.75;;;9.01;71.22
49044;BME280;34860;48.066;14.124;2024-02-28T11:15:50;96893.66;;;9.09;71.10
49044;BME280;34860;48.066;14.124;2024-02-28T11:18:48;96897.50;;;9.15;71.10
49044;BME280;34860;48.066;14.124;2024-02-28T11:21:37;96904.69;;;9.13;70.90
49044;BME280;34860;48.066;14.124;2024-02-28T11:24:31;96902.28;;;9.15;71.25
49044;BME280;34860;48.066;14.124;2024-02-28T11:27:22;96909.69;;;9.21;71.16
49044;BME280;34860;48.066;14.124;2024-02-28T11:30:12;96910.00;;;9.27;71.29
49044;BME280;34860;48.066;14.124;2024-02-28T11:33:02;96907.69;;;9.22;71.31
49044;BME280;34860;48.066;14.124;2024-02-28T11:35:55;96905.00;;;9.18;71.45
49044;BME280;34860;48.066;14.124;2024-02-28T11:38:44;96909.19;;;9.26;71.38
49044;BME280;34860;48.066;14.124;2024-02-28T11:41:33;96914.75;;;9.26;71.47
49044;BME280;34860;48.066;14.124;2024-02-28T11:44:24;96900.94;;;9.23;71.50
49044;BME280;34860;48.066;14.124;2024-02-28T11:47:13;96914.03;;;9.22;71.46
49044;BME280;34860;48.066;14.124;2024-02-28T11:50:03;96911.19;;;9.26;71.53
49044;BME280;34860;48.066;14.124;2024-02-28T11:52:53;96919.47;;;9.30;71.54
49044;BME280;34860;48.066;14.124;2024-02-28T11:55:42;96906.38;;;9.30;71.48
49044;BME280;34860;48.066;14.124;2024-02-28T11:58:32;96913.84;;;9.33;71.42
49044;BME280;34860;48.066;14.124;2024-02-28T12:01:34;96906.25;;;9.37;71.46
49044;BME280;34860;48.066;14.124;2024-02-28T12:04:23;96916.56;;;9.37;71.34
49044;BME280;34860;48.066;14.124;2024-02-28T12:07:13;96899.78;;;9.44;70.95
49044;BME280;34860;48.066;14.124;2024-02-28T12:10:03;96900.75;;;9.57;71.12
49044;BME280;34860;48.066;14.124;2024-02-28T12:12:53;96901.19;;;9.56;70.96
49044;BME280;34860;48.066;14.124;2024-02-28T12:15:42;96903.56;;;9.54;71.10
49044;BME280;34860;48.066;14.124;2024-02-28T12:18:33;96896.41;;;9.56;71.17
49044;BME280;34860;48.066;14.124;2024-02-28T12:21:22;96899.38;;;9.45;70.95
49044;BME280;34860;48.066;14.124;2024-02-28T12:24:13;96897.94;;;9.37;71.14
49044;BME280;34860;48.066;14.124;2024-02-28T12:27:02;96898.41;;;9.32;71.49
49044;BME280;34860;48.066;14.124;2024-02-28T12:29:51;96895.66;;;9.32;71.27
49044;BME280;34860;48.066;14.124;2024-02-28T12:32:41;96898.41;;;9.32;71.28
49044;BME280;34860;48.066;14.124;2024-02-28T12:35:31;96898.41;;;9.32;71.38
49044;BME280;34860;48.066;14.124;2024-02-28T12:38:20;96895.50;;;9.39;71.02
49044;BME280;34860;48.066;14.124;2024-02-28T12:41:10;96898.28;;;9.39;71.10
49044;BME280;34860;48.066;14.124;2024-02-28T12:43:59;96892.38;;;9.37;71.22
49044;BME280;34860;48.066;14.124;2024-02-28T12:46:48;96901.63;;;9.31;71.28
49044;BME280;34860;48.066;14.124;2024-02-28T12:49:37;96905.66;;;9.26;71.48
49044;BME280;34860;48.066;14.124;2024-02-28T12:52:28;96893.06;;;9.21;71.42
49044;BME280;34860;48.066;14.124;2024-02-28T12:55:17;96899.44;;;9.18;71.36
49044;BME280;34860;48.066;14.124;2024-02-28T12:58:07;96899.44;;;9.18;71.32
49044;BME280;34860;48.066;14.124;2024-02-28T13:00:56;96896.97;;;9.24;71.59
49044;BME280;34860;48.066;14.124;2024-02-28T13:03:45;96897.41;;;9.22;71.19
49044;BME280;34860;48.066;14.124;2024-02-28T13:06:36;96901.72;;;9.23;71.32
49044;BME280;34860;48.066;14.124;2024-02-28T13:09:26;96901.06;;;9.16;71.38
49044;BME280;34860;48.066;14.124;2024-02-28T13:12:16;96905.66;;;9.02;71.48
49044;BME280;34860;48.066;14.124;2024-02-28T13:15:08;96905.72;;;8.99;71.67
49044;BME280;34860;48.066;14.124;2024-02-28T13:17:57;96913.66;;;8.97;71.66
49044;BME280;34860;48.066;14.124;2024-02-28T13:20:49;96921.72;;;8.87;71.71
49044;BME280;34860;48.066;14.124;2024-02-28T13:23:39;96923.91;;;8.72;71.85
49044;BME280;34860;48.066;14.124;2024-02-28T13:26:30;96916.00;;;8.71;71.88
49044;BME280;34860;48.066;14.124;2024-02-28T13:29:19;96920.44;;;8.68;71.78
49044;BME280;34860;48.066;14.124;2024-02-28T13:32:08;96918.47;;;8.65;71.58
49044;BME280;34860;48.066;14.124;2024-02-28T13:34:58;96915.03;;;8.58;71.96
49044;BME280;34860;48.066;14.124;2024-02-28T13:37:47;96920.69;;;8.50;71.98
49044;BME280;34860;48.066;14.124;2024-02-28T13:40:36;96920.25;;;8.52;71.87
49044;BME280;34860;48.066;14.124;2024-02-28T13:43:28;96924.31;;;8.44;71.92
49044;BME280;34860;48.066;14.124;2024-02-28T13:46:17;96925.50;;;8.43;71.87
49044;BME280;34860;48.066;14.124;2024-02-28T13:49:06;96922.34;;;8.41;71.68
49044;BME280;34860;48.066;14.124;2024-02-28T13:51:56;96925.22;;;8.33;71.75
49044;BME280;34860;48.066;14.124;2024-02-28T13:54:45;96927.66;;;8.28;71.74
49044;BME280;34860;48.066;14.124;2024-02-28T13:57:35;96917.81;;;8.27;71.72
49044;BME280;34860;48.066;14.124;2024-02-28T14:00:25;96920.16;;;8.28;71.67
49044;BME280;34860;48.066;14.124;2024-02-28T14:03:14;96915.38;;;8.29;71.65
49044;BME280;34860;48.066;14.124;2024-02-28T14:06:04;96920.56;;;8.27;71.67
49044;BME280;34860;48.066;14.124;2024-02-28T14:08:53;96918.63;;;8.24;71.71
49044;BME280;34860;48.066;14.124;2024-02-28T14:11:43;96926.06;;;8.30;71.46
49044;BME280;34860;48.066;14.124;2024-02-28T14:14:32;96922.91;;;8.28;71.37
49044;BME280;34860;48.066;14.124;2024-02-28T14:17:23;96922.91;;;8.28;71.37
49044;BME280;34860;48.066;14.124;2024-02-28T14:20:12;96922.69;;;8.15;71.65
49044;BME280;34860;48.066;14.124;2024-02-28T14:23:02;96927.13;;;8.09;71.51
49044;BME280;34860;48.066;14.124;2024-02-28T14:25:53;96928.81;;;7.99;71.47
49044;BME280;34860;48.066;14.124;2024-02-28T14:28:42;96939.19;;;7.92;71.60
49044;BME280;34860;48.066;14.124;2024-02-28T14:31:32;96941.56;;;7.90;71.72
49044;BME280;34860;48.066;14.124;2024-02-28T14:34:23;96933.69;;;7.88;71.56
49044;BME280;34860;48.066;14.124;2024-02-28T14:37:13;96936.97;;;7.76;71.54
49044;BME280;34860;48.066;14.124;2024-02-28T14:40:03;96939.38;;;7.74;71.76
49044;BME280;34860;48.066;14.124;2024-02-28T14:42:57;96951.22;;;7.74;71.58
49044;BME280;34860;48.066;14.124;2024-02-28T14:45:46;96942.19;;;7.67;71.50
49044;BME280;34860;48.066;14.124;2024-02-28T14:48:36;96951.66;;;7.69;71.55
49044;BME280;34860;48.066;14.124;2024-02-28T14:51:27;96950.84;;;7.72;71.26
49044;BME280;34860;48.066;14.124;2024-02-28T14:54:17;96951.16;;;7.78;71.50
49044;BME280;34860;48.066;14.124;2024-02-28T14:57:10;96949.56;;;7.80;71.41
49044;BME280;34860;48.066;14.124;2024-02-28T15:00:02;96950.75;;;7.79;71.46